Time;durP1;ratioP1;P1;durP2;ratioP2;P2;SDS_P1;SDS_P2;PMS_P1;PMS_P2;Temp;Humidity;BMP_temperature;BMP_pressure;BME280_temperature;BME280_humidity;BME280_pressure;Samples;Min_cycle;Max_cycle;Signal;HPM_P1;HPM_P2
2023/06/08 00:02:19;;;;;;;;;;;19.10;68.80;;;;;;6102827;23;19904;-93
2023/06/08 00:04:46;;;;;;;;;;;19.10;68.70;;;;;;6101990;23;19916;-92
2023/06/08 00:07:14;;;;;;;;;;;19.00;68.70;;;;;;6101968;23;19916;-92
2023/06/08 00:09:40;;;;;;;;;;;19.00;68.70;;;;;;6100863;23;19967;-94
2023/06/08 00:12:06;;;;;;;;;;;19.00;68.80;;;;;;6101278;23;19936;-93
2023/06/08 00:14:35;;;;;;;;;;;19.00;68.80;;;;;;6101661;23;20203;-92
2023/06/08 00:17:04;;;;;;;;;;;19.00;68.80;;;;;;6101575;23;19915;-92
2023/06/08 00:19:30;;;;;;;;;;;19.00;68.80;;;;;;6101078;23;19909;-93
2023/06/08 00:21:56;;;;;;;;;;;19.00;68.90;;;;;;6101161;23;19928;-93
2023/06/08 00:24:22;;;;;;;;;;;19.00;68.80;;;;;;6101524;23;19965;-92
2023/06/08 00:26:48;;;;;;;;;;;19.00;68.90;;;;;;6100961;23;19913;-93
2023/06/08 00:29:13;;;;;;;;;;;19.00;68.80;;;;;;6100245;23;19928;-92
2023/06/08 00:31:39;;;;;;;;;;;19.00;68.80;;;;;;6097323;23;19905;-92
2023/06/08 00:34:05;;;;;;;;;;;19.00;68.90;;;;;;6071865;23;20315;-92
2023/06/08 00:36:30;;;;;;;;;;;19.00;68.80;;;;;;6071987;23;19905;-92
2023/06/08 00:38:56;;;;;;;;;;;18.90;68.80;;;;;;6071299;23;20216;-92
2023/06/08 00:41:22;;;;;;;;;;;19.00;68.90;;;;;;6072020;23;20324;-93
2023/06/08 00:43:47;;;;;;;;;;;19.00;68.90;;;;;;6072023;23;20236;-93
2023/06/08 00:46:17;;;;;;;;;;;18.90;68.70;;;;;;6072194;23;19905;-93
2023/06/08 00:48:43;;;;;;;;;;;18.90;68.60;;;;;;6071709;23;19969;-92
2023/06/08 00:51:10;;;;;;;;;;;18.90;68.70;;;;;;6072416;23;19909;-93
2023/06/08 00:53:36;;;;;;;;;;;18.90;68.70;;;;;;6072559;23;19909;-92
2023/06/08 00:56:02;;;;;;;;;;;18.90;68.70;;;;;;6072243;23;19915;-93
2023/06/08 00:58:28;;;;;;;;;;;18.90;68.50;;;;;;6072379;23;19916;-92
2023/06/08 01:00:59;;;;;;;;;;;18.90;68.50;;;;;;6072251;23;19928;-92
2023/06/08 01:03:33;;;;;;;;;;;18.90;68.50;;;;;;6070983;23;19972;-92
2023/06/08 01:06:08;;;;;;;;;;;18.90;68.40;;;;;;6071448;23;19940;-92
2023/06/08 01:08:42;;;;;;;;;;;18.90;68.50;;;;;;6071593;23;19905;-93
2023/06/08 01:11:18;;;;;;;;;;;18.90;68.30;;;;;;6071635;23;19993;-92
2023/06/08 01:13:49;;;;;;;;;;;18.90;68.30;;;;;;6072004;23;19929;-93
2023/06/08 01:16:15;;;;;;;;;;;18.90;68.40;;;;;;6071212;23;19985;-93
2023/06/08 01:18:43;;;;;;;;;;;18.90;68.10;;;;;;6071481;23;19909;-92
2023/06/08 01:21:24;;;;;;;;;;;18.80;68.20;;;;;;6071466;23;19910;-92
2023/06/08 01:24:12;;;;;;;;;;;18.80;67.90;;;;;;6071504;23;19909;-93
2023/06/08 01:26:42;;;;;;;;;;;18.80;68.10;;;;;;6071694;23;19961;-92
2023/06/08 01:29:10;;;;;;;;;;;18.80;68.10;;;;;;6071434;23;19980;-92
2023/06/08 01:31:36;;;;;;;;;;;18.80;68.10;;;;;;6071589;23;19962;-93
2023/06/08 01:34:05;;;;;;;;;;;18.80;68.00;;;;;;6070865;23;20001;-93
2023/06/08 01:36:37;;;;;;;;;;;18.80;67.90;;;;;;6072834;23;20045;-93
2023/06/08 01:39:09;;;;;;;;;;;18.80;67.80;;;;;;6072487;23;19913;-93
2023/06/08 01:41:40;;;;;;;;;;;18.80;67.70;;;;;;6073105;23;19906;-92
2023/06/08 01:44:07;;;;;;;;;;;18.80;67.70;;;;;;6073126;23;20263;-93
2023/06/08 01:46:32;;;;;;;;;;;18.80;67.70;;;;;;6072605;23;19909;-93
2023/06/08 01:49:00;;;;;;;;;;;18.80;67.70;;;;;;6072261;23;20312;-92
2023/06/08 01:51:26;;;;;;;;;;;18.70;67.60;;;;;;6072520;23;20402;-92
2023/06/08 01:54:05;;;;;;;;;;;18.80;67.90;;;;;;6072378;23;19905;-92
2023/06/08 01:56:31;;;;;;;;;;;18.70;67.50;;;;;;6072168;23;19906;-92
2023/06/08 01:58:57;;;;;;;;;;;18.70;67.60;;;;;;6071980;23;19909;-92
2023/06/08 02:01:23;;;;;;;;;;;18.70;67.60;;;;;;6072453;23;19916;-92
2023/06/08 02:03:49;;;;;;;;;;;18.70;67.70;;;;;;6072079;23;19906;-92
2023/06/08 02:06:15;;;;;;;;;;;18.70;67.70;;;;;;6071486;23;19972;-92
2023/06/08 02:08:41;;;;;;;;;;;18.70;67.50;;;;;;6071279;23;19905;-92
2023/06/08 02:11:07;;;;;;;;;;;18.70;67.60;;;;;;6097073;23;19909;-93
2023/06/08 02:13:34;;;;;;;;;;;18.70;67.30;;;;;;6071362;23;20239;-92
2023/06/08 02:16:01;;;;;;;;;;;18.70;67.60;;;;;;6071574;23;20438;-93
2023/06/08 02:18:27;;;;;;;;;;;18.70;67.60;;;;;;6097290;23;19909;-93
2023/06/08 02:20:53;;;;;;;;;;;18.70;67.40;;;;;;6067702;23;19914;-93
2023/06/08 02:23:19;;;;;;;;;;;18.70;67.30;;;;;;6071144;23;19988;-93
2023/06/08 02:25:46;;;;;;;;;;;18.60;67.40;;;;;;6071192;23;19948;-92
2023/06/08 02:28:11;;;;;;;;;;;18.70;67.30;;;;;;6071448;23;20377;-91
2023/06/08 02:30:37;;;;;;;;;;;18.70;67.50;;;;;;6071130;23;19909;-91
2023/06/08 02:33:03;;;;;;;;;;;18.70;67.60;;;;;;6091433;23;19913;-93
2023/06/08 02:35:29;;;;;;;;;;;18.70;67.30;;;;;;6100015;23;20331;-93
2023/06/08 02:37:54;;;;;;;;;;;18.60;67.20;;;;;;6126014;23;19909;-93
2023/06/08 02:40:20;;;;;;;;;;;18.60;67.20;;;;;;6100271;23;19939;-94
2023/06/08 02:42:45;;;;;;;;;;;18.60;67.40;;;;;;6100651;23;20226;-92
2023/06/08 02:45:11;;;;;;;;;;;18.60;67.90;;;;;;6100094;23;19913;-93
2023/06/08 02:47:36;;;;;;;;;;;18.60;67.20;;;;;;6099514;23;19905;-93
2023/06/08 02:50:02;;;;;;;;;;;18.60;67.30;;;;;;6099480;23;19909;-92
2023/06/08 02:52:28;;;;;;;;;;;18.60;67.30;;;;;;6099926;23;20335;-92
2023/06/08 02:54:54;;;;;;;;;;;18.60;67.20;;;;;;6099875;23;20242;-93
2023/06/08 02:57:20;;;;;;;;;;;18.60;67.10;;;;;;6099802;23;19909;-93
2023/06/08 02:59:46;;;;;;;;;;;18.60;67.30;;;;;;6100076;23;19905;-93
2023/06/08 03:02:13;;;;;;;;;;;18.60;67.20;;;;;;6100138;23;19943;-92
2023/06/08 03:04:43;;;;;;;;;;;18.60;67.30;;;;;;6100145;23;19927;-92
2023/06/08 03:07:09;;;;;;;;;;;18.60;67.10;;;;;;6099997;23;19905;-93
2023/06/08 03:09:35;;;;;;;;;;;18.50;67.00;;;;;;6101156;23;19905;-92
2023/06/08 03:12:02;;;;;;;;;;;18.50;67.10;;;;;;6101684;23;19916;-92
2023/06/08 03:14:31;;;;;;;;;;;18.50;67.00;;;;;;6102055;23;20330;-93
2023/06/08 03:17:02;;;;;;;;;;;18.50;67.10;;;;;;6101493;23;19905;-92
2023/06/08 03:19:30;;;;;;;;;;;18.50;67.00;;;;;;6101357;23;20150;-92
2023/06/08 03:22:00;;;;;;;;;;;18.50;67.00;;;;;;6102016;23;19916;-92
2023/06/08 03:24:28;;;;;;;;;;;18.50;67.10;;;;;;6101193;23;19960;-92
2023/06/08 03:27:01;;;;;;;;;;;18.50;67.00;;;;;;6101271;23;19988;-93
2023/06/08 03:29:27;;;;;;;;;;;18.50;67.00;;;;;;6101372;23;19994;-93
2023/06/08 03:31:54;;;;;;;;;;;18.50;67.10;;;;;;6120515;23;19925;-92
2023/06/08 03:34:20;;;;;;;;;;;18.50;67.10;;;;;;6071725;23;19909;-92
2023/06/08 03:36:48;;;;;;;;;;;18.50;67.10;;;;;;6071649;23;22370;-92
2023/06/08 03:39:14;;;;;;;;;;;18.50;67.00;;;;;;6072196;23;19905;-92
2023/06/08 03:41:41;;;;;;;;;;;18.50;67.20;;;;;;6072264;23;20296;-92
2023/06/08 03:44:06;;;;;;;;;;;18.50;67.00;;;;;;6097343;23;19905;-92
2023/06/08 03:46:32;;;;;;;;;;;18.50;67.00;;;;;;6072838;23;19992;-92
2023/06/08 03:48:58;;;;;;;;;;;18.50;67.10;;;;;;6072214;23;19905;-92
2023/06/08 03:51:23;;;;;;;;;;;18.50;67.00;;;;;;6072600;23;19912;-93
2023/06/08 03:53:51;;;;;;;;;;;18.50;67.10;;;;;;6072728;23;19912;-92
2023/06/08 03:56:17;;;;;;;;;;;18.50;67.10;;;;;;6072084;23;19905;-91
2023/06/08 03:58:43;;;;;;;;;;;18.40;67.10;;;;;;6071045;23;20061;-94
2023/06/08 04:01:15;;;;;;;;;;;18.50;67.30;;;;;;6071882;23;19920;-92
2023/06/08 04:03:41;;;;;;;;;;;18.40;67.10;;;;;;6072320;23;19905;-92
2023/06/08 04:06:08;;;;;;;;;;;18.40;67.10;;;;;;6072347;23;19927;-92
2023/06/08 04:08:40;;;;;;;;;;;18.40;67.10;;;;;;6097336;23;19948;-93
2023/06/08 04:11:09;;;;;;;;;;;18.40;67.10;;;;;;6072979;23;19991;-92
2023/06/08 04:13:36;;;;;;;;;;;18.40;67.10;;;;;;6072183;23;19905;-93
2023/06/08 04:16:08;;;;;;;;;;;18.40;67.20;;;;;;6071805;23;19968;-92
2023/06/08 04:18:35;;;;;;;;;;;18.40;67.20;;;;;;6071287;23;19909;-92
2023/06/08 04:21:01;;;;;;;;;;;18.40;67.30;;;;;;6071406;23;20256;-92
2023/06/08 04:23:27;;;;;;;;;;;18.40;67.20;;;;;;6071937;23;19933;-92
2023/06/08 04:25:53;;;;;;;;;;;18.40;67.30;;;;;;6072395;23;19952;-93
2023/06/08 04:28:19;;;;;;;;;;;18.40;67.30;;;;;;6072251;23;19910;-93
2023/06/08 04:30:45;;;;;;;;;;;18.40;67.50;;;;;;6071520;23;19905;-92
2023/06/08 04:33:11;;;;;;;;;;;18.40;67.40;;;;;;6094136;23;19970;-93
2023/06/08 04:35:37;;;;;;;;;;;18.40;67.40;;;;;;6100935;23;19905;-92
2023/06/08 04:38:03;;;;;;;;;;;18.40;67.60;;;;;;6100614;23;19909;-94
2023/06/08 04:40:33;;;;;;;;;;;18.40;67.50;;;;;;6100865;23;19911;-92
2023/06/08 04:42:59;;;;;;;;;;;18.40;67.60;;;;;;6101230;23;19912;-93
2023/06/08 04:45:25;;;;;;;;;;;18.40;67.50;;;;;;6101587;23;19915;-92
2023/06/08 04:47:52;;;;;;;;;;;18.40;68.40;;;;;;6100422;23;19909;-92
2023/06/08 04:50:18;;;;;;;;;;;18.40;67.80;;;;;;6100162;23;19905;-92
2023/06/08 04:52:45;;;;;;;;;;;18.40;67.80;;;;;;6101145;23;19905;-92
2023/06/08 04:55:23;;;;;;;;;;;18.40;67.90;;;;;;6101152;23;20182;-96
2023/06/08 04:58:12;;;;;;;;;;;18.40;67.80;;;;;;6077632;23;19913;-96
2023/06/08 05:00:38;;;;;;;;;;;18.40;67.90;;;;;;6099858;23;19908;-93
2023/06/08 05:03:03;;;;;;;;;;;18.40;68.10;;;;;;6099841;23;19905;-92
2023/06/08 05:05:29;;;;;;;;;;;18.50;68.30;;;;;;6100596;23;19965;-92
2023/06/08 05:07:55;;;;;;;;;;;18.50;68.20;;;;;;6100731;23;20403;-94
2023/06/08 05:10:21;;;;;;;;;;;18.50;68.30;;;;;;6099996;23;19905;-92
2023/06/08 05:12:46;;;;;;;;;;;18.50;68.40;;;;;;6099868;23;20314;-92
2023/06/08 05:15:12;;;;;;;;;;;18.50;68.40;;;;;;6101117;23;19932;-92
2023/06/08 05:17:38;;;;;;;;;;;18.50;68.50;;;;;;6100602;23;19940;-93
2023/06/08 05:20:03;;;;;;;;;;;18.50;68.50;;;;;;6126271;23;20349;-93
2023/06/08 05:22:29;;;;;;;;;;;18.50;68.70;;;;;;6100308;23;19992;-92
2023/06/08 05:24:54;;;;;;;;;;;18.50;68.70;;;;;;6101041;23;19951;-94
2023/06/08 05:27:20;;;;;;;;;;;18.60;69.10;;;;;;6099873;23;19905;-92
2023/06/08 05:29:46;;;;;;;;;;;18.60;69.10;;;;;;6100199;23;19905;-93
2023/06/08 05:32:11;;;;;;;;;;;18.60;69.20;;;;;;6115395;23;19920;-92
2023/06/08 05:34:37;;;;;;;;;;;18.60;69.20;;;;;;6071758;23;19984;-93
2023/06/08 05:37:02;;;;;;;;;;;18.60;69.30;;;;;;6070936;23;19957;-92
2023/06/08 05:39:28;;;;;;;;;;;18.60;69.50;;;;;;6070679;23;20319;-93
2023/06/08 05:41:53;;;;;;;;;;;18.70;69.60;;;;;;6071469;23;19909;-92
2023/06/08 05:44:19;;;;;;;;;;;18.70;69.70;;;;;;6071576;23;19912;-91
2023/06/08 05:46:44;;;;;;;;;;;18.70;69.60;;;;;;6070813;23;19909;-92
2023/06/08 05:49:11;;;;;;;;;;;18.70;69.70;;;;;;6070676;23;19925;-92
2023/06/08 05:51:36;;;;;;;;;;;18.70;69.70;;;;;;6070486;23;20370;-92
2023/06/08 05:54:02;;;;;;;;;;;18.70;69.70;;;;;;6070576;23;19996;-92
2023/06/08 05:56:28;;;;;;;;;;;18.80;69.70;;;;;;6069274;23;19906;-93
2023/06/08 05:58:54;;;;;;;;;;;18.80;69.80;;;;;;6069980;23;19921;-92
2023/06/08 06:01:20;;;;;;;;;;;18.80;69.80;;;;;;6071188;23;20014;-91
2023/06/08 06:03:46;;;;;;;;;;;18.80;69.70;;;;;;6071046;23;19906;-92
2023/06/08 06:06:12;;;;;;;;;;;18.90;69.90;;;;;;6071884;23;19905;-92
2023/06/08 06:08:37;;;;;;;;;;;18.90;70.00;;;;;;6070973;23;20311;-92
2023/06/08 06:11:03;;;;;;;;;;;18.90;70.00;;;;;;6096662;23;19984;-92
2023/06/08 06:13:31;;;;;;;;;;;18.90;70.10;;;;;;6071134;23;19912;-91
2023/06/08 06:15:57;;;;;;;;;;;18.90;70.10;;;;;;6069019;23;19972;-92
2023/06/08 06:18:23;;;;;;;;;;;18.90;70.30;;;;;;6070875;23;19913;-92
2023/06/08 06:20:49;;;;;;;;;;;19.00;70.30;;;;;;6071086;23;20333;-92
2023/06/08 06:23:14;;;;;;;;;;;19.00;70.40;;;;;;6071254;23;19984;-92
2023/06/08 06:25:40;;;;;;;;;;;19.00;70.50;;;;;;6070700;23;19905;-92
2023/06/08 06:28:05;;;;;;;;;;;19.10;70.80;;;;;;6071642;23;19906;-93
2023/06/08 06:30:31;;;;;;;;;;;19.10;70.60;;;;;;6070743;23;19906;-92
2023/06/08 06:32:56;;;;;;;;;;;19.10;70.50;;;;;;6089501;23;19916;-92
2023/06/08 06:35:23;;;;;;;;;;;19.10;70.40;;;;;;6099394;23;19985;-94
2023/06/08 06:38:01;;;;;;;;;;;19.20;70.30;;;;;;6098609;23;19919;-92
2023/06/08 06:40:27;;;;;;;;;;;19.20;70.10;;;;;;6095582;23;19905;-92
2023/06/08 06:42:52;;;;;;;;;;;19.30;70.00;;;;;;6100840;23;19971;-92
2023/06/08 06:45:18;;;;;;;;;;;19.30;69.70;;;;;;6103082;23;20319;-92
2023/06/08 06:47:43;;;;;;;;;;;19.30;69.50;;;;;;6103354;23;19905;-93
2023/06/08 06:50:09;;;;;;;;;;;19.40;69.50;;;;;;6102283;23;19909;-92
2023/06/08 06:52:35;;;;;;;;;;;19.40;69.40;;;;;;6103083;23;19909;-92
2023/06/08 06:55:04;;;;;;;;;;;19.40;69.20;;;;;;6103138;23;19912;-92
2023/06/08 06:57:31;;;;;;;;;;;19.40;69.10;;;;;;6102546;23;19998;-92
2023/06/08 06:59:57;;;;;;;;;;;19.50;69.00;;;;;;6102976;23;19905;-93
2023/06/08 07:02:23;;;;;;;;;;;19.50;68.90;;;;;;6102673;23;19973;-93
2023/06/08 07:04:52;;;;;;;;;;;19.60;68.90;;;;;;6102530;23;19948;-90
2023/06/08 07:07:18;;;;;;;;;;;19.60;68.80;;;;;;6102983;23;20204;-92
2023/06/08 07:09:43;;;;;;;;;;;19.70;70.10;;;;;;6103060;23;19911;-92
2023/06/08 07:12:09;;;;;;;;;;;19.70;71.70;;;;;;6103172;23;20271;-91
2023/06/08 07:14:35;;;;;;;;;;;19.80;72.10;;;;;;6104593;23;19933;-90
2023/06/08 07:17:00;;;;;;;;;;;19.90;72.90;;;;;;6104294;23;20318;-92
2023/06/08 07:19:26;;;;;;;;;;;19.90;73.20;;;;;;6102024;23;19976;-92
2023/06/08 07:21:52;;;;;;;;;;;20.00;73.50;;;;;;6102245;23;19905;-90
2023/06/08 07:24:18;;;;;;;;;;;20.00;73.30;;;;;;6102453;23;19905;-91
2023/06/08 07:26:45;;;;;;;;;;;20.10;74.10;;;;;;6102995;23;19940;-92
2023/06/08 07:29:11;;;;;;;;;;;20.10;73.60;;;;;;6127555;23;19905;-92
2023/06/08 07:31:39;;;;;;;;;;;20.20;73.60;;;;;;6100379;23;19955;-93
2023/06/08 07:34:06;;;;;;;;;;;20.20;73.80;;;;;;6074848;23;19913;-92
2023/06/08 07:36:34;;;;;;;;;;;20.30;74.10;;;;;;6073903;23;19909;-92
2023/06/08 07:39:00;;;;;;;;;;;20.30;73.90;;;;;;6074357;23;19910;-91
2023/06/08 07:41:26;;;;;;;;;;;20.40;74.00;;;;;;6073956;23;20212;-91
2023/06/08 07:43:51;;;;;;;;;;;20.40;73.40;;;;;;6073750;23;19905;-92
2023/06/08 07:46:17;;;;;;;;;;;20.40;73.20;;;;;;6074511;23;20275;-93
2023/06/08 07:53:50;;;;;;;;;;;20.60;73.20;;;;;;6085848;23;19935;-92
2023/06/08 07:56:18;;;;;;;;;;;20.70;73.00;;;;;;6159211;23;19991;-95
2023/06/08 07:58:51;;;;;;;;;;;20.70;73.30;;;;;;6133157;23;19916;-94
2023/06/08 08:01:17;;;;;;;;;;;20.80;72.60;;;;;;6129950;23;19913;-91
2023/06/08 08:03:42;;;;;;;;;;;20.80;72.20;;;;;;6154703;23;20004;-91
2023/06/08 08:06:08;;;;;;;;;;;20.80;72.50;;;;;;6154472;23;20215;-91
2023/06/08 08:11:09;;;;;;;;;;;20.90;72.90;;;;;;6134667;23;19936;-96
2023/06/08 08:13:35;;;;;;;;;;;21.00;72.50;;;;;;6094052;23;19920;-96
2023/06/08 08:16:09;;;;;;;;;;;21.00;72.50;;;;;;6145895;23;20230;-96
2023/06/08 08:18:35;;;;;;;;;;;21.00;72.00;;;;;;6139515;23;19924;-91
2023/06/08 08:21:00;;;;;;;;;;;21.10;72.50;;;;;;6130750;23;19904;-91
2023/06/08 08:23:26;;;;;;;;;;;21.20;73.10;;;;;;6130134;23;19909;-90
2023/06/08 08:25:51;;;;;;;;;;;21.20;73.30;;;;;;6129735;23;19905;-89
2023/06/08 08:28:17;;;;;;;;;;;21.20;73.00;;;;;;6130644;23;19905;-90
2023/06/08 08:30:42;;;;;;;;;;;21.20;73.40;;;;;;6129552;23;19904;-89
2023/06/08 08:33:28;;;;;;;;;;;21.30;73.60;;;;;;6130550;23;20249;-94
2023/06/08 08:35:54;;;;;;;;;;;21.30;72.50;;;;;;6130372;23;20270;-92
2023/06/08 08:38:20;;;;;;;;;;;21.30;72.50;;;;;;6130399;23;19916;-92
2023/06/08 08:40:46;;;;;;;;;;;21.30;72.60;;;;;;6129899;23;20330;-95
2023/06/08 08:43:19;;;;;;;;;;;21.40;72.30;;;;;;6105626;23;19963;-89
2023/06/08 08:45:45;;;;;;;;;;;21.40;71.00;;;;;;6129743;23;19908;-94
2023/06/08 08:48:14;;;;;;;;;;;21.40;69.80;;;;;;6130607;23;19909;-89
2023/06/08 08:50:40;;;;;;;;;;;21.50;68.30;;;;;;6129791;23;19904;-90
2023/06/08 08:53:06;;;;;;;;;;;21.50;68.50;;;;;;6129379;23;19931;-91
2023/06/08 08:55:33;;;;;;;;;;;21.50;68.10;;;;;;6129477;23;19904;-85
2023/06/08 08:57:59;;;;;;;;;;;21.50;67.30;;;;;;6155109;23;19908;-92
2023/06/08 09:00:26;;;;;;;;;;;21.60;65.60;;;;;;6129551;23;19909;-92
2023/06/08 09:02:52;;;;;;;;;;;21.60;65.00;;;;;;6155666;23;19977;-90
2023/06/08 09:05:18;;;;;;;;;;;21.60;63.00;;;;;;6155069;23;19935;-90
2023/06/08 09:07:43;;;;;;;;;;;21.70;61.50;;;;;;6154812;23;19905;-88
2023/06/08 09:10:19;;;;;;;;;;;21.70;61.80;;;;;;6129583;23;19905;-90
2023/06/08 09:12:46;;;;;;;;;;;21.70;61.60;;;;;;6129165;23;19904;-90
2023/06/08 09:15:13;;;;;;;;;;;21.80;61.40;;;;;;6129217;23;19912;-88
2023/06/08 09:17:40;;;;;;;;;;;21.80;61.70;;;;;;6129321;23;20430;-88
2023/06/08 09:20:10;;;;;;;;;;;21.90;62.00;;;;;;6155365;23;20369;-90
2023/06/08 09:25:37;;;;;;;;;;;21.90;61.00;;;;;;6155214;23;19915;-88
2023/06/08 09:28:31;;;;;;;;;;;21.90;60.80;;;;;;6128822;23;19909;-93
2023/06/08 09:31:00;;;;;;;;;;;21.90;62.10;;;;;;6130723;23;20318;-94
2023/06/08 09:33:32;;;;;;;;;;;22.00;61.80;;;;;;6131404;23;19912;-93
2023/06/08 09:36:01;;;;;;;;;;;22.00;61.80;;;;;;6131437;23;19912;-96
2023/06/08 09:38:28;;;;;;;;;;;22.00;59.70;;;;;;6147927;23;19916;-96
2023/06/08 09:41:26;;;;;;;;;;;22.00;58.80;;;;;;6146147;23;19975;-96
2023/06/08 09:43:52;;;;;;;;;;;22.20;58.80;;;;;;6138448;23;19895;-96
2023/06/08 09:54:40;;;;;;;;;;;22.00;57.20;;;;;;6142926;23;19921;-96
2023/06/08 09:57:05;;;;;;;;;;;22.10;57.30;;;;;;6141237;23;19945;-96
2023/06/08 09:59:47;;;;;;;;;;;22.10;57.00;;;;;;6133624;23;20434;-96
2023/06/08 10:02:22;;;;;;;;;;;22.20;58.10;;;;;;6091493;23;19920;-96
2023/06/08 10:05:05;;;;;;;;;;;22.20;58.90;;;;;;6071484;23;20112;-96
2023/06/08 10:07:35;;;;;;;;;;;22.20;57.80;;;;;;6134464;23;19909;-92
2023/06/08 10:10:14;;;;;;;;;;;22.20;57.90;;;;;;6130704;23;19913;-96
2023/06/08 10:12:41;;;;;;;;;;;22.20;58.90;;;;;;6140369;23;19912;-94
2023/06/08 10:36:09;;;;;;;;;;;22.10;56.80;;;;;;6129155;23;19921;-96
2023/06/08 10:39:02;;;;;;;;;;;22.10;57.70;;;;;;6125114;23;19920;-96
2023/06/08 11:25:34;;;;;;;;;;;21.80;56.80;;;;;;6130139;23;19927;-95
2023/06/08 11:28:10;;;;;;;;;;;21.70;57.20;;;;;;6085847;23;19894;-96
2023/06/08 11:30:37;;;;;;;;;;;21.80;56.40;;;;;;6054755;23;19990;-96
2023/06/08 11:33:06;;;;;;;;;;;21.70;56.50;;;;;;6173732;23;20287;-96
2023/06/08 11:35:33;;;;;;;;;;;21.60;56.10;;;;;;6138104;23;20275;-96
2023/06/08 11:38:02;;;;;;;;;;;21.60;56.60;;;;;;6139283;23;19913;-96
2023/06/08 11:40:31;;;;;;;;;;;21.60;56.20;;;;;;6109148;23;19971;-95
2023/06/08 11:43:07;;;;;;;;;;;21.50;55.70;;;;;;6107504;23;20473;-96
2023/06/08 11:45:34;;;;;;;;;;;21.50;55.50;;;;;;6133561;23;19912;-96
2023/06/08 11:48:26;;;;;;;;;;;21.50;56.50;;;;;;6148372;23;19908;-96
2023/06/08 11:50:51;;;;;;;;;;;21.50;55.80;;;;;;6145388;23;19909;-96
2023/06/08 11:54:03;;;;;;;;;;;21.50;56.40;;;;;;6141751;23;19905;-96
2023/06/08 11:56:35;;;;;;;;;;;21.50;56.50;;;;;;6059671;23;20360;-96
2023/06/08 12:12:47;;;;;;;;;;;21.50;56.20;;;;;;6169876;23;19925;-96
2023/06/08 12:15:17;;;;;;;;;;;21.40;55.70;;;;;;6139283;23;19909;-88
2023/06/08 12:17:43;;;;;;;;;;;21.40;56.40;;;;;;6128693;23;19995;-86
2023/06/08 12:20:08;;;;;;;;;;;21.50;56.30;;;;;;6128722;23;20259;-93
2023/06/08 12:22:34;;;;;;;;;;;21.50;56.70;;;;;;6128479;23;19909;-86
2023/06/08 12:25:00;;;;;;;;;;;21.50;56.60;;;;;;6128768;23;19913;-89
2023/06/08 12:27:29;;;;;;;;;;;21.50;57.00;;;;;;6128583;23;19959;-88
2023/06/08 12:29:56;;;;;;;;;;;21.50;57.10;;;;;;6128949;23;19904;-89
2023/06/08 12:32:32;;;;;;;;;;;21.50;57.70;;;;;;6155955;23;20622;-96
2023/06/08 12:35:03;;;;;;;;;;;21.60;57.90;;;;;;6131145;23;19912;-91
2023/06/08 12:37:30;;;;;;;;;;;21.60;57.70;;;;;;6130164;23;19916;-96
2023/06/08 12:39:57;;;;;;;;;;;21.60;57.90;;;;;;6129859;23;19908;-91
2023/06/08 12:42:23;;;;;;;;;;;21.60;57.20;;;;;;6130087;23;19912;-90
2023/06/08 12:44:49;;;;;;;;;;;21.60;56.30;;;;;;6129905;23;19905;-91
2023/06/08 12:47:19;;;;;;;;;;;21.60;56.20;;;;;;6130017;23;20293;-95
2023/06/08 12:49:45;;;;;;;;;;;21.60;56.50;;;;;;6105796;23;19909;-89
2023/06/08 12:52:11;;;;;;;;;;;21.60;56.40;;;;;;6131199;23;20302;-91
2023/06/08 12:54:37;;;;;;;;;;;21.70;55.40;;;;;;6129773;23;19909;-88
2023/06/08 12:57:02;;;;;;;;;;;21.70;56.90;;;;;;6128960;23;19928;-86
2023/06/08 12:59:28;;;;;;;;;;;21.70;55.70;;;;;;6129156;23;19912;-89
2023/06/08 13:01:54;;;;;;;;;;;21.60;55.20;;;;;;6130293;23;19905;-89
2023/06/08 13:04:20;;;;;;;;;;;21.60;55.00;;;;;;6128587;23;19915;-89
2023/06/08 13:06:46;;;;;;;;;;;21.60;55.00;;;;;;6129553;23;19904;-88
2023/06/08 13:09:11;;;;;;;;;;;21.60;55.10;;;;;;6128722;23;20456;-89
2023/06/08 13:11:39;;;;;;;;;;;21.60;54.70;;;;;;6142658;23;19919;-89
2023/06/08 13:14:06;;;;;;;;;;;21.60;56.20;;;;;;6152319;23;19956;-85
2023/06/08 13:16:32;;;;;;;;;;;21.60;56.40;;;;;;6153597;23;19912;-88
2023/06/08 13:18:57;;;;;;;;;;;21.60;55.80;;;;;;6150350;23;19919;-87
2023/06/08 13:21:23;;;;;;;;;;;21.60;55.60;;;;;;6150558;23;19944;-87
2023/06/08 13:23:48;;;;;;;;;;;21.60;56.50;;;;;;6150693;23;19908;-86
2023/06/08 13:26:14;;;;;;;;;;;21.60;56.60;;;;;;6151247;23;19936;-86
2023/06/08 13:28:40;;;;;;;;;;;21.50;56.70;;;;;;6150445;23;20000;-86
2023/06/08 13:31:06;;;;;;;;;;;21.50;56.70;;;;;;6151356;23;19932;-86
2023/06/08 13:33:31;;;;;;;;;;;21.50;56.10;;;;;;6150568;23;19967;-87
2023/06/08 13:35:58;;;;;;;;;;;21.60;56.40;;;;;;6150259;23;19905;-86
2023/06/08 13:38:28;;;;;;;;;;;22.00;56.70;;;;;;6152124;23;19912;-86
2023/06/08 13:40:55;;;;;;;;;;;21.80;56.60;;;;;;6152407;23;19904;-86
2023/06/08 13:43:20;;;;;;;;;;;21.60;56.60;;;;;;6152010;23;19909;-87
2023/06/08 13:45:46;;;;;;;;;;;21.60;56.20;;;;;;6150162;23;20314;-87
2023/06/08 13:48:12;;;;;;;;;;;21.60;56.50;;;;;;6151068;23;19909;-87
2023/06/08 13:50:37;;;;;;;;;;;21.60;55.70;;;;;;6151817;23;19959;-86
2023/06/08 13:53:03;;;;;;;;;;;21.50;56.10;;;;;;6150537;23;19908;-86
2023/06/08 13:55:29;;;;;;;;;;;21.50;55.90;;;;;;6152945;23;19983;-86
2023/06/08 13:57:54;;;;;;;;;;;21.50;56.80;;;;;;6153532;23;19920;-86
2023/06/08 14:00:20;;;;;;;;;;;21.50;57.10;;;;;;6152948;23;19919;-87
2023/06/08 14:02:47;;;;;;;;;;;21.50;56.00;;;;;;6152399;23;19909;-87
2023/06/08 14:05:17;;;;;;;;;;;21.60;56.00;;;;;;6152426;23;19926;-86
2023/06/08 14:07:48;;;;;;;;;;;21.60;56.00;;;;;;6156287;23;19952;-95
2023/06/08 14:10:14;;;;;;;;;;;21.50;55.00;;;;;;6131930;23;19955;-91
2023/06/08 14:12:43;;;;;;;;;;;21.50;55.30;;;;;;6128958;23;19909;-93
2023/06/08 14:15:09;;;;;;;;;;;21.50;55.00;;;;;;6105260;23;19964;-92
2023/06/08 14:17:37;;;;;;;;;;;21.50;55.00;;;;;;6130451;23;19950;-94
2023/06/08 14:20:03;;;;;;;;;;;21.50;55.00;;;;;;6130362;23;20412;-92
2023/06/08 14:22:31;;;;;;;;;;;21.50;55.40;;;;;;6129648;23;19948;-93
2023/06/08 14:24:57;;;;;;;;;;;21.40;54.70;;;;;;6130024;23;19932;-96
2023/06/08 14:27:22;;;;;;;;;;;21.40;54.40;;;;;;6106044;23;20345;-95
2023/06/08 14:29:53;;;;;;;;;;;21.40;55.00;;;;;;6131739;23;19932;-94
2023/06/08 14:32:49;;;;;;;;;;;21.40;54.30;;;;;;6110661;23;19908;-96
2023/06/08 14:35:14;;;;;;;;;;;21.40;54.70;;;;;;6122858;23;19977;-96
2023/06/08 14:38:10;;;;;;;;;;;21.50;55.50;;;;;;6131572;23;19916;-96
2023/06/08 14:40:40;;;;;;;;;;;21.50;54.80;;;;;;6132972;23;20008;-96
2023/06/08 14:43:38;;;;;;;;;;;21.50;55.60;;;;;;6132457;23;19912;-96
2023/06/08 14:46:34;;;;;;;;;;;21.50;55.40;;;;;;6128693;23;19904;-96
2023/06/08 14:55:01;;;;;;;;;;;21.60;54.50;;;;;;6164351;23;20360;-96
2023/06/08 14:57:27;;;;;;;;;;;21.50;54.60;;;;;;6134111;23;19916;-96
2023/06/08 14:59:53;;;;;;;;;;;21.50;54.10;;;;;;6148712;23;19987;-96
2023/06/08 15:02:47;;;;;;;;;;;21.50;54.50;;;;;;6139672;23;19928;-96
2023/06/08 15:05:52;;;;;;;;;;;21.50;53.50;;;;;;6072758;23;19930;-96
2023/06/08 15:08:27;;;;;;;;;;;21.50;54.40;;;;;;6046575;23;19905;-94
2023/06/08 15:11:48;;;;;;;;;;;21.60;55.40;;;;;;6028067;23;19992;-96
2023/06/08 15:14:16;;;;;;;;;;;21.40;54.30;;;;;;6073669;23;20283;-96
2023/06/08 15:17:02;;;;;;;;;;;21.50;53.70;;;;;;6026267;23;19916;-96
2023/06/08 15:19:47;;;;;;;;;;;21.40;53.70;;;;;;6076168;23;19913;-93
2023/06/08 15:22:15;;;;;;;;;;;21.40;53.50;;;;;;6051108;23;20472;-96
2023/06/08 15:25:04;;;;;;;;;;;21.40;53.20;;;;;;6048926;23;19929;-96
2023/06/08 15:31:12;;;;;;;;;;;21.40;53.10;;;;;;6047477;23;19948;-96
2023/06/08 15:36:57;;;;;;;;;;;21.40;52.80;;;;;;6061002;23;19985;-96
2023/06/08 15:43:07;;;;;;;;;;;21.40;52.70;;;;;;6138790;23;19916;-96
2023/06/08 15:45:33;;;;;;;;;;;21.40;52.60;;;;;;6109321;23;20254;-96
2023/06/08 15:48:22;;;;;;;;;;;21.40;52.30;;;;;;6134294;23;19920;-96
2023/06/08 15:50:57;;;;;;;;;;;21.30;52.60;;;;;;6132959;23;19916;-96
2023/06/08 15:53:26;;;;;;;;;;;21.40;53.80;;;;;;6086855;23;19933;-96
2023/06/08 15:56:16;;;;;;;;;;;21.40;54.90;;;;;;6108992;23;19937;-96
2023/06/08 15:58:43;;;;;;;;;;;21.40;55.80;;;;;;6109474;23;19964;-96
2023/06/08 16:01:15;;;;;;;;;;;21.40;57.00;;;;;;6144797;23;19916;-96
2023/06/08 16:03:55;;;;;;;;;;;21.40;58.40;;;;;;6116983;23;19909;-95
2023/06/08 16:06:25;;;;;;;;;;;21.40;59.40;;;;;;6109888;23;19909;-96
2023/06/08 16:08:57;;;;;;;;;;;21.30;60.30;;;;;;6109839;23;19988;-95
2023/06/08 16:11:23;;;;;;;;;;;21.30;60.70;;;;;;6109096;23;19908;-96
2023/06/08 16:13:57;;;;;;;;;;;21.30;60.80;;;;;;6110670;23;20317;-95
2023/06/08 16:16:23;;;;;;;;;;;21.30;60.50;;;;;;6109543;23;19960;-96
2023/06/08 16:19:10;;;;;;;;;;;21.30;60.30;;;;;;6135861;23;20314;-96
2023/06/08 16:21:45;;;;;;;;;;;21.30;60.20;;;;;;6132710;23;19916;-96